Tonopah, Nevada Weather observations

Data are for observation ending at time listed.
 Day   Time    Ave.   Ave.  Ave.  Vector   Max.   Stn.    Total    Solar   Ave.  
  of    of     Air    Rel.  Wind   Wind    Wind   Baro.  Precip.   Rad.    Soil  
Year   Day     Temp.  Hum.  Speed  Dir.    Gust   Pres.                    Temp. 
2014   (PST)    F      %     mph   deg.    mph     mb.     in.     W/m2     F   
------------------------------------------------------------------------------
 108   22:30   48.8    62    1.3   136      2.6   810.1    0.00       0    61.7
 108   22:40   48.5    62    1.9   155      3.4   810.2    0.00       0    61.6
 108   22:50   49.3    60    2.7   166      4.4   810.2    0.00       0    61.4
 108   23:00   49.7    58    2.4   132      5.0   810.3    0.00       0    61.3
 108   23:10   49.8    58    3.3   163      7.5   810.3    0.00       0    61.2
 108   23:20   48.9    60    4.1   174      8.3   810.2    0.00       0    61.0
 108   23:30   48.4    61    4.1   168      5.6   810.3    0.00       0    60.9
 108   23:40   49.0    58    4.2   165      5.5   810.3    0.00       0    60.8
 108   23:50   48.9    58    4.2   160      5.6   810.3    0.00       0    60.6
 109    0:00   49.5    55    4.9   155      6.8   810.3    0.00       0    60.5
 109    0:10   49.3    56    5.1   156      6.6   810.3    0.00       0    60.4
 109    0:20   49.2    56    4.7   151      6.0   810.2    0.00       0    60.2
 109    0:30   49.3    56    5.2   149      6.9   810.2    0.00       0    60.1
 109    0:40   49.1    57    5.4   146      7.7   810.2    0.00       0    60.0
 109    0:50   49.0    56    4.5   148      7.1   810.1    0.00       0    59.9
 109    1:00   48.9    57    4.5   151      6.9   810.1    0.00       0    59.8
 109    1:10   48.7    57    4.3   142      6.9   810.1    0.00       0    59.7
 109    1:20   47.8    58    4.3   148      5.8   810.1    0.00       0    59.6
 109    1:30   47.9    58    3.9   153      5.9   810.1    0.00       0    59.5
 109    1:40   47.6    58    2.6   174      4.2   810.1    0.00       0    59.3
 109    1:50   47.7    57    2.8   176      4.2   810.0    0.00       0    59.3
 109    2:00   46.6    60    2.2   155      3.9   810.0    0.00       0    59.1
 109    2:10   47.0    58    2.6   174      3.7   810.0    0.00       0    59.0
 109    2:20   46.5    59    2.7   145      3.5   810.1    0.00       0    58.9
 109    2:30   45.2    63    1.8    87      3.7   810.1    0.00       0    58.7
 109    2:40   44.7    64    3.2   105      4.5   810.1    0.00       0    58.6
 109    2:50   46.3    58    2.4   116      4.2   810.1    0.00       0    58.5
 109    3:00   46.4    58    2.3   109      3.7   810.1    0.00       0    58.4
 109    3:10   46.5    57    2.3    91      3.6   810.1    0.00       0    58.3
 109    3:20   46.1    57    1.2    96      3.5   810.2    0.00       0    58.2
 109    3:30   46.7    55    3.0   105      4.9   810.2    0.00       0    58.1
 109    3:40   47.6    52    3.9   113      7.0   810.2    0.00       0    58.0
 109    3:50   47.2    53    3.2   129      4.7   810.2    0.00       0    57.8
 109    4:00   46.8    54    4.0   136      5.9   810.3    0.00       0    57.7
 109    4:10   46.1    57    3.8   159      4.9   810.3    0.00       0    57.6
 109    4:20   46.5    57    3.9   157      6.5   810.3    0.00       0    57.5
 109    4:30   46.3    58    4.6   160      6.6   810.2    0.00       0    57.4
 109    4:40   46.1    59    4.7   154      6.5   810.3    0.00       0    57.3
 109    4:50   46.5    59    3.4   160      5.0   810.4    0.00       0    57.2
 109    5:00   46.1    60    3.6   159      5.6   810.5    0.00       0    57.1
 109    5:10   45.6    62    5.0   165      8.4   810.5    0.00       4    57.0
 109    5:20   45.8    62    4.7   162      7.0   810.5    0.00      11    56.9
 109    5:30   45.8    61    3.9   160      6.7   810.7    0.00      20    56.8
 109    5:40   45.9    61    4.2   163      6.2   810.8    0.00      28    56.7
 109    5:50   46.4    60    3.6   155      6.2   810.9    0.00      61    56.6
 109    6:00   47.4    59    2.9   179      5.1   811.0    0.00     113    56.5
 109    6:10   48.5    56    3.1   176      6.1   811.1    0.00     152    56.4
 109    6:20   49.5    53    3.9   136      6.2   811.3    0.00     176    56.4
 109    6:30   50.2    52    4.2   138      6.1   811.3    0.00     208    56.3
 109    6:40   50.5    52    4.5   136      6.9   811.4    0.00     241    56.3
 109    6:50   51.6    50    4.4   136      6.9   811.5    0.00     254    56.3
 109    7:00   52.3    47    5.2   136      8.2   811.5    0.00     285    56.3
 109    7:10   52.7    45    5.7   137      8.9   811.6    0.00     311    56.3
 109    7:20   53.0    44    5.6   128      8.8   811.7    0.00     349    56.4
 109    7:30   53.2    44    4.8   128      9.3   811.8    0.00     354    56.5
 109    7:40   53.6    44    4.2    95      7.6   811.8    0.00     382    56.6
 109    7:50   54.4    43    3.9   109      6.9   811.9    0.00     468    56.7
 109    8:00   55.1    42    3.7   105      6.5   811.9    0.00     529    56.8
 109    8:10   55.1    42    4.3   105      7.7   812.0    0.00     490    57.0
 109    8:20   55.6    41    4.0   109      7.7   812.0    0.00     466    57.1
 109    8:30   56.1    41    3.6   115      6.5   812.1    0.00     522    57.3
 109    8:40   57.0    40    3.3   104      6.4   812.1    0.00     675    57.5
 109    8:50   57.9    38    3.3   111      7.2   812.2    0.00     684    57.8
 109    9:00   58.0    37    2.9   123      6.9   812.3    0.00     655    58.0
 109    9:10   58.7    36    3.8   103      8.8   812.3    0.00     697    58.3
 109    9:20   59.0    35    4.1   130      8.9   812.3    0.00     683    58.5
 109    9:30   59.3    33    4.8   188      9.7   812.4    0.00     778    58.8
 109    9:40   61.7    31    2.8   225      8.3   812.4    0.00     833    59.2
 109    9:50   61.2    31    3.5   208      9.6   812.5    0.00     796    59.5
 109   10:00   61.6    30    5.0   257      9.3   812.5    0.00     669    59.8
 109   10:10   61.3    31    4.8   255     10.0   812.5    0.00     635    60.1
 109   10:20   61.8    31    5.3   249     10.6   812.5    0.00     820    60.5
 109   10:30   61.8    31    3.9   241      9.7   812.5    0.00     793    60.8
 109   10:40   62.1    31    4.7   284      8.3   812.5    0.00     873    61.2
 109   10:50   62.8    31    5.0   246      8.6   812.5    0.00     963    61.6
 109   11:00   63.3    30    3.4   281      7.6   812.4    0.00     957    62.0
 109   11:10   64.2    28    3.5   265      9.4   812.3    0.00     964    62.4
 109   11:20   65.0    27    2.7   229      9.7   812.3    0.00     964    62.8
 109   11:30   64.3    28    5.2   225     11.1   812.2    0.00     977    63.2
 109   11:40   64.0    28    2.9   215      8.9   812.1    0.00     978    63.6
 109   11:50   65.0    27    4.9   258     14.2   812.0    0.00     984    64.1
 109   12:00   64.9    27    4.4   266      9.3   812.0    0.00     988    64.6
 109   12:10   65.5    26    4.7   258     14.3   811.9    0.00     997    65.1
 109   12:20   65.4    25    4.4   276     13.1   811.9    0.00     866    65.6
 109   12:30   65.8    24    5.2   236     12.2   811.8    0.00    1007    66.1
 109   12:40   66.8    23    5.8   282     19.1   811.7    0.00    1010    66.6
 109   12:50   66.9    23    6.6   263     17.0   811.8    0.00    1003    67.0
 109   13:00   67.5    23    4.7   225     15.6   811.7    0.00    1044    67.5
 109   13:10   67.6    22    8.1   265     16.7   811.6    0.00     815    67.9
 109   13:20   66.4    23    4.8   219     14.2   811.6    0.00     753    68.3
 109   13:30   67.1    23    6.0   268     13.0   811.5    0.00     525    68.7
 109   13:40   66.1    24    5.9   244     11.5   811.5    0.00     226    69.1
 109   13:50   66.2    23    3.9   145      9.2   811.3    0.00     850    69.4
 109   14:00   67.6    22    6.3   300     13.4   811.2    0.00     538    69.7
 109   14:10   67.1    23    5.4   274     10.4   811.2    0.00     610    69.9
 109   14:20   67.2    23    6.6   284     12.6   811.2    0.00     683    70.1
 109   14:30   67.5    22    3.7    74      7.6   811.0    0.00     855    70.3
 109   14:40   69.1    20    5.3   285     10.9   811.0    0.00     833    70.4
 109   14:50   68.1    20    5.0   231     11.8   811.0    0.00     635    70.6
 109   15:00   68.4    20    6.2   232     11.8   811.0    0.00     731    70.6
 109   15:10   68.9    20    5.7   294     10.7   810.9    0.00     690    70.8
 109   15:20   69.2    20    3.5   302     11.9   810.8    0.00     669    70.9
 109   15:30   68.7    19    5.4   219     11.7   810.8    0.00     617    71.0
 109   15:40   68.6    19    4.5   208      8.8   810.8    0.00     591    71.1
 109   15:50   68.9    19    6.5   225     10.7   810.8    0.00     618    71.2
 109   16:00   69.5    19    6.0   282     15.0   810.8    0.00     581    71.2
 109   16:10   69.0    19    3.8   214      7.7   810.8    0.00     489    71.2
 109   16:20   69.1    19    3.0   190      6.7   810.8    0.00     423    71.3
 109   16:30   69.2    19    2.2   161      7.2   810.9    0.00     294    71.3
 109   16:40   68.3    19    4.2   180      7.9   810.9    0.00     254    71.2
 109   16:50   69.7    19    2.5   302      5.6   810.9    0.00     310    71.2
 109   17:00   68.8    19    4.5   221      8.8   810.9    0.00     136    71.1
 109   17:10   68.2    19    4.1   223      9.2   810.9    0.00     272    71.0
 109   17:20   68.6    19    5.4   255     11.5   810.9    0.00     129    70.9
 109   17:30   67.5    20    5.4   271      9.0   810.9    0.00      41    70.8
 109   17:40   66.7    21    4.1   277      7.9   810.9    0.00      33    70.6
 109   17:50   66.4    22    2.9   266      5.5   810.9    0.00      31    70.5
 109   18:00   66.0    22    4.9   252     11.1   811.0    0.00      20    70.3
 109   18:10   64.6    24    7.3   244     14.6   811.2    0.00      19    70.1
 109   18:20   63.9    25    8.6   238     14.8   811.2    0.00      16    70.0
 109   18:30   64.2    24    7.6   227     12.6   811.2    0.00       5    69.8
 109   18:40   63.9    24    5.8   228      9.6   811.3    0.00       1    69.6
 109   18:50   63.6    25    4.7   240      8.3   811.3    0.00       0    69.4
 109   19:00   63.2    26    7.4   218     11.8   811.4    0.00       0    69.2
 109   19:10   62.6    27    8.2   210     15.0   811.6    0.00       0    69.0
 109   19:20   62.7    26    4.3   212      8.3   811.6    0.00       0    68.8
 109   19:30   63.1    25    3.6   227      8.4   811.7    0.00       0    68.6
 109   19:40   63.1    25    1.9   224      5.7   811.9    0.00       0    68.4
 109   19:50   62.7    26    3.7   225      7.5   812.0    0.00       0    68.2
 109   20:00   62.9    26    6.0   208      9.6   812.2    0.00       0    68.0
 109   20:10   62.1    28    9.3   204     13.6   812.3    0.00       0    67.8
 109   20:20   61.2    31    7.6   204     11.9   812.4    0.00       0    67.6
 109   20:30   61.3    30    5.8   205      9.1   812.5    0.00       0    67.4
 109   20:40   62.3    27    5.8   223     10.5   812.6    0.00       0    67.2
 109   20:50   62.2    28    8.6   210     13.9   812.6    0.00       0    67.0
 109   21:00   61.2    31    8.8   203     14.5   812.6    0.00       0    66.8
 109   21:10   61.2    31    8.3   198     12.1   812.7    0.00       0    66.7
 109   21:20   61.1    31    6.7   204     10.3   812.7    0.00       0    66.5
 109   21:30   61.4    29    5.7   210      9.9   812.8    0.00       0    66.3
 109   21:40   61.4    29    5.7   226     10.4   812.8    0.00       0    66.2
 109   21:50   60.2    30    7.1   266     10.4   812.9    0.00       0    66.0
 109   22:00   59.1    29   10.1   276     18.5   813.0    0.00       0    65.9
 109   22:10   58.5    26   12.5   283     20.8   813.0    0.00       0    65.7
 109   22:20   57.5    25   12.2   285     20.2   813.2    0.00       0    65.6

Return to Tonopah, Nevada graphs page.


Western Regional Climate Center,wrcc@dri.edu